sensor_id;sensor_type;location;lat;lon;timestamp;pressure;altitude;pressure_sealevel;temperature;humidity
55538;BME280;41383;51.418;7.286;2022-11-20T00:00:37;99501.38;;;1.35;69.08
55538;BME280;41383;51.418;7.286;2022-11-20T00:03:03;99501.56;;;1.47;68.42
55538;BME280;41383;51.418;7.286;2022-11-20T00:05:28;99496.22;;;1.40;68.81
55538;BME280;41383;51.418;7.286;2022-11-20T00:07:53;99504.97;;;1.01;69.85
55538;BME280;41383;51.418;7.286;2022-11-20T00:10:18;99501.00;;;1.24;69.98
55538;BME280;41383;51.418;7.286;2022-11-20T00:12:44;99501.00;;;1.31;69.79
55538;BME280;41383;51.418;7.286;2022-11-20T00:15:09;99493.78;;;1.18;70.96
55538;BME280;41383;51.418;7.286;2022-11-20T00:17:35;99495.22;;;1.21;71.39
55538;BME280;41383;51.418;7.286;2022-11-20T00:20:00;99491.31;;;1.23;71.67
55538;BME280;41383;51.418;7.286;2022-11-20T00:22:26;99479.72;;;1.23;72.20
55538;BME280;41383;51.418;7.286;2022-11-20T00:24:51;99491.47;;;1.42;72.46
55538;BME280;41383;51.418;7.286;2022-11-20T00:27:16;99494.16;;;1.42;72.26
55538;BME280;41383;51.418;7.286;2022-11-20T00:29:41;99489.63;;;1.29;73.25
55538;BME280;41383;51.418;7.286;2022-11-20T00:32:07;99489.00;;;1.34;73.11
55538;BME280;41383;51.418;7.286;2022-11-20T00:34:32;99490.25;;;1.31;73.81
55538;BME280;41383;51.418;7.286;2022-11-20T00:36:57;99484.75;;;1.65;72.92
55538;BME280;41383;51.418;7.286;2022-11-20T00:39:22;99486.19;;;1.74;72.07
55538;BME280;41383;51.418;7.286;2022-11-20T00:41:47;99492.78;;;1.79;71.67
55538;BME280;41383;51.418;7.286;2022-11-20T00:44:13;99494.94;;;1.49;73.34
55538;BME280;41383;51.418;7.286;2022-11-20T00:46:38;99496.81;;;1.56;73.36
55538;BME280;41383;51.418;7.286;2022-11-20T00:49:03;99506.88;;;1.74;72.16
55538;BME280;41383;51.418;7.286;2022-11-20T00:51:28;99499.94;;;1.53;73.55
55538;BME280;41383;51.418;7.286;2022-11-20T00:53:57;99501.72;;;1.72;72.99
55538;BME280;41383;51.418;7.286;2022-11-20T00:56:24;99502.69;;;1.85;72.69
55538;BME280;41383;51.418;7.286;2022-11-20T00:58:50;99501.41;;;1.94;73.47
55538;BME280;41383;51.418;7.286;2022-11-20T01:01:26;99500.63;;;1.87;71.51
55538;BME280;41383;51.418;7.286;2022-11-20T01:03:57;99493.59;;;1.79;72.22
55538;BME280;41383;51.418;7.286;2022-11-20T01:06:24;99494.19;;;1.88;71.91
55538;BME280;41383;51.418;7.286;2022-11-20T01:08:53;99503.13;;;1.82;72.58
55538;BME280;41383;51.418;7.286;2022-11-20T01:11:21;99492.50;;;1.94;72.50
55538;BME280;41383;51.418;7.286;2022-11-20T01:13:48;99486.50;;;1.98;73.33
55538;BME280;41383;51.418;7.286;2022-11-20T01:16:21;99491.78;;;2.12;72.72
55538;BME280;41383;51.418;7.286;2022-11-20T01:18:49;99493.00;;;2.23;72.40
55538;BME280;41383;51.418;7.286;2022-11-20T01:21:15;99485.41;;;2.45;72.39
55538;BME280;41383;51.418;7.286;2022-11-20T01:23:42;99489.16;;;2.05;73.49
55538;BME280;41383;51.418;7.286;2022-11-20T01:26:19;99481.84;;;2.19;73.69
55538;BME280;41383;51.418;7.286;2022-11-20T01:28:45;99480.25;;;2.05;74.40
55538;BME280;41383;51.418;7.286;2022-11-20T01:33:41;99471.47;;;2.23;75.68
55538;BME280;41383;51.418;7.286;2022-11-20T01:36:07;99471.16;;;2.38;74.53
55538;BME280;41383;51.418;7.286;2022-11-20T01:38:33;99463.94;;;2.32;74.87
55538;BME280;41383;51.418;7.286;2022-11-20T01:40:59;99473.91;;;2.31;74.74
55538;BME280;41383;51.418;7.286;2022-11-20T01:43:24;99459.91;;;2.16;76.31
55538;BME280;41383;51.418;7.286;2022-11-20T01:45:58;99462.66;;;2.41;76.30
55538;BME280;41383;51.418;7.286;2022-11-20T01:48:28;99459.34;;;2.39;76.10
55538;BME280;41383;51.418;7.286;2022-11-20T01:50:55;99459.25;;;2.53;74.79
55538;BME280;41383;51.418;7.286;2022-11-20T01:53:26;99453.44;;;2.56;74.99
55538;BME280;41383;51.418;7.286;2022-11-20T01:55:55;99448.81;;;2.63;73.73
55538;BME280;41383;51.418;7.286;2022-11-20T01:58:24;99448.06;;;2.56;74.19
55538;BME280;41383;51.418;7.286;2022-11-20T02:00:52;99443.88;;;2.60;74.90
55538;BME280;41383;51.418;7.286;2022-11-20T02:03:18;99446.50;;;2.67;74.56
55538;BME280;41383;51.418;7.286;2022-11-20T02:05:49;99441.44;;;2.77;74.36
55538;BME280;41383;51.418;7.286;2022-11-20T02:08:17;99452.13;;;2.65;75.61
55538;BME280;41383;51.418;7.286;2022-11-20T02:10:43;99452.94;;;2.66;75.73
55538;BME280;41383;51.418;7.286;2022-11-20T02:13:08;99453.31;;;2.70;75.39
55538;BME280;41383;51.418;7.286;2022-11-20T02:15:52;99453.97;;;2.65;75.63
55538;BME280;41383;51.418;7.286;2022-11-20T02:18:19;99456.50;;;2.60;75.57
55538;BME280;41383;51.418;7.286;2022-11-20T02:20:46;99455.41;;;2.67;76.02
55538;BME280;41383;51.418;7.286;2022-11-20T02:24:18;99450.84;;;2.68;76.07
55538;BME280;41383;51.418;7.286;2022-11-20T02:26:20;99444.50;;;2.81;75.85
55538;BME280;41383;51.418;7.286;2022-11-20T02:28:46;99438.34;;;2.80;75.67
55538;BME280;41383;51.418;7.286;2022-11-20T02:31:12;99440.34;;;2.85;75.53
55538;BME280;41383;51.418;7.286;2022-11-20T02:33:37;99440.50;;;2.90;75.49
55538;BME280;41383;51.418;7.286;2022-11-20T02:36:03;99436.28;;;2.76;75.96
55538;BME280;41383;51.418;7.286;2022-11-20T02:38:28;99442.00;;;2.86;75.82
55538;BME280;41383;51.418;7.286;2022-11-20T02:40:53;99449.03;;;2.87;75.95
55538;BME280;41383;51.418;7.286;2022-11-20T02:43:19;99438.38;;;2.74;76.08
55538;BME280;41383;51.418;7.286;2022-11-20T02:45:44;99425.06;;;2.79;75.67
55538;BME280;41383;51.418;7.286;2022-11-20T02:48:09;99425.53;;;2.76;76.64
55538;BME280;41383;51.418;7.286;2022-11-20T02:50:37;99427.41;;;2.94;76.08
55538;BME280;41383;51.418;7.286;2022-11-20T02:53:03;99432.03;;;2.87;76.93
55538;BME280;41383;51.418;7.286;2022-11-20T02:55:28;99423.06;;;2.93;76.64
55538;BME280;41383;51.418;7.286;2022-11-20T02:57:54;99423.84;;;2.75;77.13
55538;BME280;41383;51.418;7.286;2022-11-20T03:00:19;99408.81;;;2.92;76.93
55538;BME280;41383;51.418;7.286;2022-11-20T03:02:44;99414.41;;;3.10;75.99
55538;BME280;41383;51.418;7.286;2022-11-20T03:05:09;99415.53;;;3.02;76.53
55538;BME280;41383;51.418;7.286;2022-11-20T03:07:35;99414.31;;;2.98;76.78
55538;BME280;41383;51.418;7.286;2022-11-20T03:10:00;99407.16;;;3.10;76.58
55538;BME280;41383;51.418;7.286;2022-11-20T03:12:25;99417.19;;;3.03;77.19
55538;BME280;41383;51.418;7.286;2022-11-20T03:14:51;99408.09;;;2.97;76.04
55538;BME280;41383;51.418;7.286;2022-11-20T03:17:16;99414.75;;;2.76;77.68
55538;BME280;41383;51.418;7.286;2022-11-20T03:19:41;99407.78;;;2.87;77.59
55538;BME280;41383;51.418;7.286;2022-11-20T03:22:06;99405.03;;;2.94;76.91
55538;BME280;41383;51.418;7.286;2022-11-20T03:24:32;99413.50;;;2.97;77.07
55538;BME280;41383;51.418;7.286;2022-11-20T03:26:57;99408.81;;;2.92;77.36
55538;BME280;41383;51.418;7.286;2022-11-20T03:29:22;99410.13;;;2.83;78.18
55538;BME280;41383;51.418;7.286;2022-11-20T03:31:47;99413.88;;;3.20;76.38
55538;BME280;41383;51.418;7.286;2022-11-20T03:34:13;99402.50;;;3.18;75.36
55538;BME280;41383;51.418;7.286;2022-11-20T03:36:39;99402.91;;;3.02;75.92
55538;BME280;41383;51.418;7.286;2022-11-20T03:39:05;99398.91;;;2.86;76.50
55538;BME280;41383;51.418;7.286;2022-11-20T03:41:35;99410.44;;;2.94;76.10
55538;BME280;41383;51.418;7.286;2022-11-20T03:44:03;99399.28;;;2.90;76.76
55538;BME280;41383;51.418;7.286;2022-11-20T03:46:29;99393.97;;;3.02;76.88
55538;BME280;41383;51.418;7.286;2022-11-20T03:48:54;99398.56;;;3.20;76.83
55538;BME280;41383;51.418;7.286;2022-11-20T03:53:47;99391.59;;;3.31;75.89
55538;BME280;41383;51.418;7.286;2022-11-20T03:56:15;99396.09;;;3.19;76.00
55538;BME280;41383;51.418;7.286;2022-11-20T03:58:42;99399.28;;;2.90;76.53
55538;BME280;41383;51.418;7.286;2022-11-20T04:01:15;99392.19;;;2.96;76.99
55538;BME280;41383;51.418;7.286;2022-11-20T04:03:42;99394.53;;;3.11;76.77
55538;BME280;41383;51.418;7.286;2022-11-20T04:06:15;99395.72;;;3.15;76.19
55538;BME280;41383;51.418;7.286;2022-11-20T04:08:41;99383.66;;;2.99;77.34
55538;BME280;41383;51.418;7.286;2022-11-20T04:11:19;99381.88;;;2.92;77.18
55538;BME280;41383;51.418;7.286;2022-11-20T04:14:05;99376.81;;;3.34;76.16
55538;BME280;41383;51.418;7.286;2022-11-20T04:16:34;99387.34;;;3.23;75.96
55538;BME280;41383;51.418;7.286;2022-11-20T04:19:01;99384.25;;;3.20;76.66
55538;BME280;41383;51.418;7.286;2022-11-20T04:21:28;99390.22;;;3.22;76.17
55538;BME280;41383;51.418;7.286;2022-11-20T04:23:54;99385.31;;;3.19;76.13
55538;BME280;41383;51.418;7.286;2022-11-20T04:26:22;99393.81;;;3.15;76.97
55538;BME280;41383;51.418;7.286;2022-11-20T04:28:47;99390.34;;;3.15;76.76
55538;BME280;41383;51.418;7.286;2022-11-20T04:31:15;99388.97;;;3.24;76.25
55538;BME280;41383;51.418;7.286;2022-11-20T04:33:40;99383.50;;;3.31;76.54
55538;BME280;41383;51.418;7.286;2022-11-20T04:36:29;99388.31;;;3.10;77.58
55538;BME280;41383;51.418;7.286;2022-11-20T04:38:58;99395.03;;;3.20;77.18
55538;BME280;41383;51.418;7.286;2022-11-20T04:41:27;99391.13;;;3.15;76.93
55538;BME280;41383;51.418;7.286;2022-11-20T04:43:55;99399.09;;;3.29;76.76
55538;BME280;41383;51.418;7.286;2022-11-20T04:46:25;99385.69;;;3.22;76.87
55538;BME280;41383;51.418;7.286;2022-11-20T04:48:50;99389.19;;;3.23;76.17
55538;BME280;41383;51.418;7.286;2022-11-20T04:51:15;99391.59;;;3.31;76.00
55538;BME280;41383;51.418;7.286;2022-11-20T04:53:41;99390.91;;;3.36;75.43
55538;BME280;41383;51.418;7.286;2022-11-20T04:56:08;99390.22;;;3.22;75.83
55538;BME280;41383;51.418;7.286;2022-11-20T04:58:34;99383.28;;;3.33;75.11
55538;BME280;41383;51.418;7.286;2022-11-20T05:01:03;99384.53;;;3.30;75.23
55538;BME280;41383;51.418;7.286;2022-11-20T05:03:29;99386.13;;;3.19;75.60
55538;BME280;41383;51.418;7.286;2022-11-20T05:05:54;99375.72;;;3.04;75.86
55538;BME280;41383;51.418;7.286;2022-11-20T05:08:19;99379.16;;;3.11;75.78
55538;BME280;41383;51.418;7.286;2022-11-20T05:10:44;99385.91;;;3.02;75.97
55538;BME280;41383;51.418;7.286;2022-11-20T05:13:10;99392.03;;;3.09;75.96
55538;BME280;41383;51.418;7.286;2022-11-20T05:15:35;99395.84;;;3.20;74.86
55538;BME280;41383;51.418;7.286;2022-11-20T05:18:00;99396.72;;;2.95;76.22
55538;BME280;41383;51.418;7.286;2022-11-20T05:20:25;99393.38;;;3.00;76.09
55538;BME280;41383;51.418;7.286;2022-11-20T05:22:52;99402.72;;;2.97;76.58
55538;BME280;41383;51.418;7.286;2022-11-20T05:25:17;99391.81;;;3.11;75.43
55538;BME280;41383;51.418;7.286;2022-11-20T05:27:42;99402.75;;;3.16;74.69
55538;BME280;41383;51.418;7.286;2022-11-20T05:30:08;99403.50;;;3.23;75.40
55538;BME280;41383;51.418;7.286;2022-11-20T05:32:34;99388.97;;;3.24;74.88
55538;BME280;41383;51.418;7.286;2022-11-20T05:34:59;99392.25;;;3.26;74.66
55538;BME280;41383;51.418;7.286;2022-11-20T05:37:24;99388.66;;;3.33;75.06
55538;BME280;41383;51.418;7.286;2022-11-20T05:39:50;99402.22;;;3.26;74.61
55538;BME280;41383;51.418;7.286;2022-11-20T05:42:15;99394.28;;;3.31;74.53
55538;BME280;41383;51.418;7.286;2022-11-20T05:44:56;99401.31;;;3.32;75.09
55538;BME280;41383;51.418;7.286;2022-11-20T05:47:22;99392.78;;;3.35;74.56
55538;BME280;41383;51.418;7.286;2022-11-20T05:49:47;99388.13;;;3.24;75.25
55538;BME280;41383;51.418;7.286;2022-11-20T05:52:13;99390.34;;;3.46;74.18
55538;BME280;41383;51.418;7.286;2022-11-20T05:54:38;99397.59;;;3.33;74.91
55538;BME280;41383;51.418;7.286;2022-11-20T05:57:03;99385.13;;;3.32;74.96
55538;BME280;41383;51.418;7.286;2022-11-20T05:59:28;99388.31;;;3.10;74.67
55538;BME280;41383;51.418;7.286;2022-11-20T06:01:54;99384.34;;;2.94;75.90
55538;BME280;41383;51.418;7.286;2022-11-20T06:04:19;99384.78;;;3.10;75.29
55538;BME280;41383;51.418;7.286;2022-11-20T06:06:44;99382.84;;;3.17;74.83
55538;BME280;41383;51.418;7.286;2022-11-20T06:09:10;99388.22;;;2.98;75.68
55538;BME280;41383;51.418;7.286;2022-11-20T06:11:35;99383.81;;;3.04;75.18
55538;BME280;41383;51.418;7.286;2022-11-20T06:14:00;99393.69;;;3.10;75.00
55538;BME280;41383;51.418;7.286;2022-11-20T06:16:25;99382.13;;;3.41;72.19
55538;BME280;41383;51.418;7.286;2022-11-20T06:18:51;99374.97;;;3.34;72.59
55538;BME280;41383;51.418;7.286;2022-11-20T06:21:19;99376.03;;;3.33;71.94
55538;BME280;41383;51.418;7.286;2022-11-20T06:23:45;99389.03;;;3.18;73.05
55538;BME280;41383;51.418;7.286;2022-11-20T06:26:13;99376.63;;;3.17;73.36
55538;BME280;41383;51.418;7.286;2022-11-20T06:28:39;99380.66;;;3.07;73.29
55538;BME280;41383;51.418;7.286;2022-11-20T06:31:05;99377.66;;;3.15;72.68
55538;BME280;41383;51.418;7.286;2022-11-20T06:33:31;99385.16;;;2.95;74.03
55538;BME280;41383;51.418;7.286;2022-11-20T06:35:58;99382.00;;;3.17;72.33
55538;BME280;41383;51.418;7.286;2022-11-20T06:38:25;99392.63;;;2.92;72.72
55538;BME280;41383;51.418;7.286;2022-11-20T06:40:50;99390.16;;;2.72;73.49
55538;BME280;41383;51.418;7.286;2022-11-20T06:43:15;99399.81;;;2.80;73.15
55538;BME280;41383;51.418;7.286;2022-11-20T06:45:41;99400.63;;;2.55;75.18
55538;BME280;41383;51.418;7.286;2022-11-20T06:48:06;99401.25;;;2.57;74.87
55538;BME280;41383;51.418;7.286;2022-11-20T06:50:31;99397.84;;;2.87;73.13
55538;BME280;41383;51.418;7.286;2022-11-20T06:53:00;99404.66;;;2.90;71.81
55538;BME280;41383;51.418;7.286;2022-11-20T06:55:25;99406.72;;;2.69;71.93
55538;BME280;41383;51.418;7.286;2022-11-20T06:57:51;99401.84;;;2.59;71.99
55538;BME280;41383;51.418;7.286;2022-11-20T07:00:16;99401.69;;;2.54;72.25
55538;BME280;41383;51.418;7.286;2022-11-20T07:02:41;99400.22;;;2.58;72.67
55538;BME280;41383;51.418;7.286;2022-11-20T07:05:06;99393.09;;;2.38;72.54
55538;BME280;41383;51.418;7.286;2022-11-20T07:07:32;99399.31;;;2.39;72.09
55538;BME280;41383;51.418;7.286;2022-11-20T07:09:57;99396.69;;;2.32;72.55
55538;BME280;41383;51.418;7.286;2022-11-20T07:12:22;99396.31;;;2.54;72.33
55538;BME280;41383;51.418;7.286;2022-11-20T07:14:47;99393.38;;;2.30;71.88
55538;BME280;41383;51.418;7.286;2022-11-20T07:17:13;99401.63;;;2.35;71.62
55538;BME280;41383;51.418;7.286;2022-11-20T07:19:38;99408.03;;;2.08;72.91
55538;BME280;41383;51.418;7.286;2022-11-20T07:22:03;99405.72;;;2.12;72.31
55538;BME280;41383;51.418;7.286;2022-11-20T07:24:28;99412.88;;;2.25;72.74
55538;BME280;41383;51.418;7.286;2022-11-20T07:26:54;99406.63;;;2.31;72.02
55538;BME280;41383;51.418;7.286;2022-11-20T07:29:19;99421.06;;;2.37;72.04
55538;BME280;41383;51.418;7.286;2022-11-20T07:31:44;99423.38;;;2.33;71.62
55538;BME280;41383;51.418;7.286;2022-11-20T07:34:09;99418.06;;;2.20;72.37
55538;BME280;41383;51.418;7.286;2022-11-20T07:36:35;99425.97;;;2.21;72.53
55538;BME280;41383;51.418;7.286;2022-11-20T07:39:00;99424.63;;;2.31;72.44
55538;BME280;41383;51.418;7.286;2022-11-20T07:41:25;99425.31;;;2.52;71.20
55538;BME280;41383;51.418;7.286;2022-11-20T07:43:51;99424.75;;;2.68;70.33
55538;BME280;41383;51.418;7.286;2022-11-20T07:46:16;99431.94;;;2.49;71.38
55538;BME280;41383;51.418;7.286;2022-11-20T07:48:41;99421.94;;;2.56;71.41
55538;BME280;41383;51.418;7.286;2022-11-20T07:51:07;99424.88;;;2.55;70.97
55538;BME280;41383;51.418;7.286;2022-11-20T07:53:32;99423.03;;;2.49;71.50
55538;BME280;41383;51.418;7.286;2022-11-20T07:56:02;99426.91;;;2.60;71.23
55538;BME280;41383;51.418;7.286;2022-11-20T07:58:29;99417.06;;;2.47;72.11
55538;BME280;41383;51.418;7.286;2022-11-20T08:00:55;99427.03;;;2.46;72.85
55538;BME280;41383;51.418;7.286;2022-11-20T08:03:20;99427.88;;;2.65;71.19
55538;BME280;41383;51.418;7.286;2022-11-20T08:05:45;99428.94;;;2.64;70.78
55538;BME280;41383;51.418;7.286;2022-11-20T08:08:10;99423.44;;;2.78;70.31
55538;BME280;41383;51.418;7.286;2022-11-20T08:10:36;99414.84;;;2.88;70.07
55538;BME280;41383;51.418;7.286;2022-11-20T08:13:01;99414.88;;;3.07;69.78
55538;BME280;41383;51.418;7.286;2022-11-20T08:15:48;99410.28;;;2.88;70.99
55538;BME280;41383;51.418;7.286;2022-11-20T08:18:17;99411.59;;;2.79;71.15
55538;BME280;41383;51.418;7.286;2022-11-20T08:20:43;99414.38;;;2.72;72.20
55538;BME280;41383;51.418;7.286;2022-11-20T08:23:08;99407.03;;;2.79;72.02
55538;BME280;41383;51.418;7.286;2022-11-20T08:25:35;99402.94;;;2.96;71.70
55538;BME280;41383;51.418;7.286;2022-11-20T08:28:05;99410.13;;;3.02;70.87
55538;BME280;41383;51.418;7.286;2022-11-20T08:30:31;99413.91;;;3.01;71.50
55538;BME280;41383;51.418;7.286;2022-11-20T08:33:05;99410.00;;;2.97;71.87
55538;BME280;41383;51.418;7.286;2022-11-20T08:35:35;99398.91;;;3.24;71.11
55538;BME280;41383;51.418;7.286;2022-11-20T08:38:02;99401.47;;;3.19;71.44
55538;BME280;41383;51.418;7.286;2022-11-20T08:40:27;99406.41;;;3.22;71.11
55538;BME280;41383;51.418;7.286;2022-11-20T08:42:52;99397.00;;;3.31;71.39
55538;BME280;41383;51.418;7.286;2022-11-20T08:45:18;99402.91;;;3.21;71.47
55538;BME280;41383;51.418;7.286;2022-11-20T08:47:44;99402.81;;;3.28;71.37
55538;BME280;41383;51.418;7.286;2022-11-20T08:50:10;99395.97;;;3.63;68.75
55538;BME280;41383;51.418;7.286;2022-11-20T08:52:36;99400.25;;;3.52;68.24
55538;BME280;41383;51.418;7.286;2022-11-20T08:55:01;99400.13;;;3.28;68.90
55538;BME280;41383;51.418;7.286;2022-11-20T08:57:27;99392.78;;;3.35;69.07
55538;BME280;41383;51.418;7.286;2022-11-20T08:59:52;99395.91;;;3.51;67.82
55538;BME280;41383;51.418;7.286;2022-11-20T09:02:17;99401.59;;;3.61;66.81
55538;BME280;41383;51.418;7.286;2022-11-20T09:04:42;99400.63;;;3.87;66.48
55538;BME280;41383;51.418;7.286;2022-11-20T09:07:08;99403.44;;;3.80;65.89
55538;BME280;41383;51.418;7.286;2022-11-20T09:09:33;99411.84;;;4.02;65.04
55538;BME280;41383;51.418;7.286;2022-11-20T09:11:58;99410.31;;;4.06;65.27
55538;BME280;41383;51.418;7.286;2022-11-20T09:14:23;99406.47;;;4.14;64.42
55538;BME280;41383;51.418;7.286;2022-11-20T09:16:54;99405.63;;;4.14;64.17
55538;BME280;41383;51.418;7.286;2022-11-20T09:19:19;99400.94;;;4.21;64.45
55538;BME280;41383;51.418;7.286;2022-11-20T09:21:44;99397.00;;;4.36;64.49
55538;BME280;41383;51.418;7.286;2022-11-20T09:24:10;99403.31;;;4.29;63.95
55538;BME280;41383;51.418;7.286;2022-11-20T09:26:35;99399.94;;;4.34;63.99
55538;BME280;41383;51.418;7.286;2022-11-20T09:29:00;99394.88;;;4.38;64.21
55538;BME280;41383;51.418;7.286;2022-11-20T09:31:25;99393.44;;;4.23;64.24
55538;BME280;41383;51.418;7.286;2022-11-20T09:33:51;99395.69;;;4.26;64.38
55538;BME280;41383;51.418;7.286;2022-11-20T09:36:16;99389.94;;;4.23;65.53
55538;BME280;41383;51.418;7.286;2022-11-20T09:38:44;99385.50;;;4.40;65.30
55538;BME280;41383;51.418;7.286;2022-11-20T09:44:19;99376.13;;;4.55;65.00
55538;BME280;41383;51.418;7.286;2022-11-20T09:49:50;99378.94;;;4.60;65.16
55538;BME280;41383;51.418;7.286;2022-11-20T09:52:42;99374.47;;;4.66;65.94
55538;BME280;41383;51.418;7.286;2022-11-20T09:55:11;99374.94;;;4.87;65.52
55538;BME280;41383;51.418;7.286;2022-11-20T09:57:44;99369.19;;;4.83;65.81
55538;BME280;41383;51.418;7.286;2022-11-20T10:00:13;99366.00;;;4.86;65.63
55538;BME280;41383;51.418;7.286;2022-11-20T10:02:42;99364.94;;;4.99;66.51
55538;BME280;41383;51.418;7.286;2022-11-20T10:05:17;99357.22;;;4.79;67.05
55538;BME280;41383;51.418;7.286;2022-11-20T10:16:07;99360.72;;;5.04;66.15
55538;BME280;41383;51.418;7.286;2022-11-20T10:21:16;99363.66;;;4.90;65.82
55538;BME280;41383;51.418;7.286;2022-11-20T10:23:59;99356.16;;;4.92;67.25
55538;BME280;41383;51.418;7.286;2022-11-20T10:26:41;99349.31;;;5.01;67.23
55538;BME280;41383;51.418;7.286;2022-11-20T10:29:12;99339.56;;;5.00;67.06
55538;BME280;41383;51.418;7.286;2022-11-20T10:31:44;99335.59;;;4.91;68.22
55538;BME280;41383;51.418;7.286;2022-11-20T10:34:30;99339.88;;;5.16;66.94
55538;BME280;41383;51.418;7.286;2022-11-20T10:37:04;99333.16;;;5.31;66.34
55538;BME280;41383;51.418;7.286;2022-11-20T10:39:39;99332.41;;;5.35;65.82
55538;BME280;41383;51.418;7.286;2022-11-20T10:42:26;99333.38;;;5.29;66.00
55538;BME280;41383;51.418;7.286;2022-11-20T10:45:02;99326.47;;;5.21;66.64
55538;BME280;41383;51.418;7.286;2022-11-20T10:47:35;99332.38;;;5.47;65.97
55538;BME280;41383;51.418;7.286;2022-11-20T10:50:05;99324.63;;;5.51;65.38
55538;BME280;41383;51.418;7.286;2022-11-20T11:01:19;99315.19;;;5.54;64.54
55538;BME280;41383;51.418;7.286;2022-11-20T11:03:48;99318.91;;;5.35;65.49
55538;BME280;41383;51.418;7.286;2022-11-20T11:08:53;99311.81;;;5.46;65.22
55538;BME280;41383;51.418;7.286;2022-11-20T11:11:22;99311.09;;;5.51;65.44
55538;BME280;41383;51.418;7.286;2022-11-20T11:13:48;99299.78;;;5.54;64.48
55538;BME280;41383;51.418;7.286;2022-11-20T11:16:24;99298.66;;;5.67;64.55
55538;BME280;41383;51.418;7.286;2022-11-20T11:18:51;99302.34;;;5.61;63.89
55538;BME280;41383;51.418;7.286;2022-11-20T11:21:22;99289.41;;;5.63;64.10
55538;BME280;41383;51.418;7.286;2022-11-20T11:23:57;99290.47;;;5.79;63.71
55538;BME280;41383;51.418;7.286;2022-11-20T11:26:24;99289.72;;;5.84;63.44
55538;BME280;41383;51.418;7.286;2022-11-20T11:31:30;99281.03;;;5.82;62.82
55538;BME280;41383;51.418;7.286;2022-11-20T11:34:13;99277.28;;;5.83;62.81
55538;BME280;41383;51.418;7.286;2022-11-20T11:36:39;99272.59;;;5.78;62.39
55538;BME280;41383;51.418;7.286;2022-11-20T11:39:14;99267.59;;;5.87;62.13
55538;BME280;41383;51.418;7.286;2022-11-20T11:41:41;99255.97;;;5.87;63.03
55538;BME280;41383;51.418;7.286;2022-11-20T11:47:01;99247.59;;;5.71;62.75
55538;BME280;41383;51.418;7.286;2022-11-20T11:49:28;99258.75;;;5.75;62.87
55538;BME280;41383;51.418;7.286;2022-11-20T11:52:15;99246.44;;;5.67;62.68
55538;BME280;41383;51.418;7.286;2022-11-20T11:54:53;99246.78;;;5.88;62.34
55538;BME280;41383;51.418;7.286;2022-11-20T12:00:00;99227.13;;;6.10;62.43
55538;BME280;41383;51.418;7.286;2022-11-20T12:02:49;99226.88;;;6.11;62.81
55538;BME280;41383;51.418;7.286;2022-11-20T12:08:32;99223.06;;;5.78;63.01
55538;BME280;41383;51.418;7.286;2022-11-20T12:11:29;99223.00;;;5.90;63.10
55538;BME280;41383;51.418;7.286;2022-11-20T12:14:14;99216.84;;;5.94;63.34
55538;BME280;41383;51.418;7.286;2022-11-20T12:16:42;99213.91;;;5.79;63.87
55538;BME280;41383;51.418;7.286;2022-11-20T12:19:12;99207.09;;;5.93;64.15
55538;BME280;41383;51.418;7.286;2022-11-20T12:21:42;99203.47;;;6.05;63.86
55538;BME280;41383;51.418;7.286;2022-11-20T12:29:51;99202.97;;;5.73;64.49
55538;BME280;41383;51.418;7.286;2022-11-20T12:34:55;99178.41;;;5.75;64.67
55538;BME280;41383;51.418;7.286;2022-11-20T12:37:45;99183.63;;;5.82;64.72
55538;BME280;41383;51.418;7.286;2022-11-20T12:43:26;99175.06;;;5.51;65.24
55538;BME280;41383;51.418;7.286;2022-11-20T12:46:32;99174.06;;;5.57;64.80
55538;BME280;41383;51.418;7.286;2022-11-20T12:49:17;99180.53;;;5.56;65.25
55538;BME280;41383;51.418;7.286;2022-11-20T12:57:31;99166.13;;;5.67;65.32
55538;BME280;41383;51.418;7.286;2022-11-20T13:00:11;99169.88;;;5.66;65.41
55538;BME280;41383;51.418;7.286;2022-11-20T13:05:43;99160.88;;;5.60;65.30
55538;BME280;41383;51.418;7.286;2022-11-20T13:08:23;99150.63;;;5.63;66.01
55538;BME280;41383;51.418;7.286;2022-11-20T13:11:01;99137.28;;;5.73;65.59
55538;BME280;41383;51.418;7.286;2022-11-20T13:13:35;99139.56;;;5.64;66.00
55538;BME280;41383;51.418;7.286;2022-11-20T13:16:17;99130.19;;;5.72;65.75
55538;BME280;41383;51.418;7.286;2022-11-20T13:18:45;99117.91;;;5.64;65.39
55538;BME280;41383;51.418;7.286;2022-11-20T13:21:38;99110.22;;;5.56;65.96
55538;BME280;41383;51.418;7.286;2022-11-20T13:24:18;99111.78;;;5.52;66.09
55538;BME280;41383;51.418;7.286;2022-11-20T13:26:45;99106.16;;;5.53;65.94
55538;BME280;41383;51.418;7.286;2022-11-20T13:29:16;99105.13;;;5.59;66.37
55538;BME280;41383;51.418;7.286;2022-11-20T13:31:46;99092.94;;;5.57;66.19
55538;BME280;41383;51.418;7.286;2022-11-20T13:34:23;99088.44;;;5.63;65.97
55538;BME280;41383;51.418;7.286;2022-11-20T13:36:54;99094.09;;;5.61;66.36
55538;BME280;41383;51.418;7.286;2022-11-20T13:39:27;99084.16;;;5.49;66.02
55538;BME280;41383;51.418;7.286;2022-11-20T13:41:55;99083.44;;;5.54;66.90
55538;BME280;41383;51.418;7.286;2022-11-20T13:46:58;99087.59;;;5.62;66.24
55538;BME280;41383;51.418;7.286;2022-11-20T13:49:42;99088.09;;;5.59;66.45
55538;BME280;41383;51.418;7.286;2022-11-20T13:52:55;99075.72;;;5.63;66.09
55538;BME280;41383;51.418;7.286;2022-11-20T13:55:40;99077.34;;;5.64;66.06
55538;BME280;41383;51.418;7.286;2022-11-20T14:01:06;99058.56;;;5.75;66.23
55538;BME280;41383;51.418;7.286;2022-11-20T14:03:34;99050.50;;;5.80;66.43
55538;BME280;41383;51.418;7.286;2022-11-20T14:06:03;99048.88;;;5.79;66.08
55538;BME280;41383;51.418;7.286;2022-11-20T14:08:44;99051.25;;;5.53;67.12
55538;BME280;41383;51.418;7.286;2022-11-20T14:11:19;99040.56;;;5.63;67.28
55538;BME280;41383;51.418;7.286;2022-11-20T14:14:02;99039.75;;;5.63;67.56
55538;BME280;41383;51.418;7.286;2022-11-20T14:16:34;99030.25;;;5.60;67.82
55538;BME280;41383;51.418;7.286;2022-11-20T14:19:30;99017.94;;;5.69;67.77
55538;BME280;41383;51.418;7.286;2022-11-20T14:22:31;99012.00;;;5.72;67.98
55538;BME280;41383;51.418;7.286;2022-11-20T14:27:38;99018.94;;;5.63;68.20
55538;BME280;41383;51.418;7.286;2022-11-20T14:30:05;99006.47;;;5.62;68.93
55538;BME280;41383;51.418;7.286;2022-11-20T14:32:31;99013.53;;;5.63;68.89